sensor_id;sensor_type;location;lat;lon;timestamp;P1;durP1;ratioP1;P2;durP2;ratioP2
9409;SDS011;4744;52.576;13.568;2024-01-30T00:01:09;10.88;;;5.63;;
9409;SDS011;4744;52.576;13.568;2024-01-30T00:03:36;10.43;;;4.95;;
9409;SDS011;4744;52.576;13.568;2024-01-30T00:06:03;13.18;;;5.90;;
9409;SDS011;4744;52.576;13.568;2024-01-30T00:08:30;12.13;;;5.70;;
9409;SDS011;4744;52.576;13.568;2024-01-30T00:10:57;10.18;;;5.45;;
9409;SDS011;4744;52.576;13.568;2024-01-30T00:13:24;9.35;;;5.78;;
9409;SDS011;4744;52.576;13.568;2024-01-30T00:15:52;9.30;;;4.65;;
9409;SDS011;4744;52.576;13.568;2024-01-30T00:18:19;9.63;;;4.80;;
9409;SDS011;4744;52.576;13.568;2024-01-30T00:20:46;7.03;;;4.82;;
9409;SDS011;4744;52.576;13.568;2024-01-30T00:23:13;11.02;;;5.18;;
9409;SDS011;4744;52.576;13.568;2024-01-30T00:25:40;10.40;;;4.90;;
9409;SDS011;4744;52.576;13.568;2024-01-30T00:28:07;9.38;;;5.43;;
9409;SDS011;4744;52.576;13.568;2024-01-30T00:30:34;9.07;;;5.28;;
9409;SDS011;4744;52.576;13.568;2024-01-30T00:33:02;11.00;;;5.22;;
9409;SDS011;4744;52.576;13.568;2024-01-30T00:35:30;13.20;;;5.22;;
9409;SDS011;4744;52.576;13.568;2024-01-30T00:37:57;8.23;;;5.28;;
9409;SDS011;4744;52.576;13.568;2024-01-30T00:40:24;9.93;;;5.05;;
9409;SDS011;4744;52.576;13.568;2024-01-30T00:42:50;9.65;;;5.00;;
9409;SDS011;4744;52.576;13.568;2024-01-30T00:45:18;9.80;;;5.22;;
9409;SDS011;4744;52.576;13.568;2024-01-30T00:47:45;10.68;;;5.18;;
9409;SDS011;4744;52.576;13.568;2024-01-30T00:50:13;12.70;;;4.95;;
9409;SDS011;4744;52.576;13.568;2024-01-30T00:52:40;9.40;;;5.05;;
9409;SDS011;4744;52.576;13.568;2024-01-30T00:55:10;10.35;;;5.50;;
9409;SDS011;4744;52.576;13.568;2024-01-30T00:57:37;8.55;;;5.18;;
9409;SDS011;4744;52.576;13.568;2024-01-30T01:00:05;11.82;;;5.45;;
9409;SDS011;4744;52.576;13.568;2024-01-30T01:02:34;7.82;;;4.32;;
9409;SDS011;4744;52.576;13.568;2024-01-30T01:05:01;8.32;;;5.10;;
9409;SDS011;4744;52.576;13.568;2024-01-30T01:07:29;15.07;;;5.43;;
9409;SDS011;4744;52.576;13.568;2024-01-30T01:09:56;10.60;;;5.15;;
9409;SDS011;4744;52.576;13.568;2024-01-30T01:12:23;9.50;;;5.07;;
9409;SDS011;4744;52.576;13.568;2024-01-30T01:14:50;9.65;;;4.85;;
9409;SDS011;4744;52.576;13.568;2024-01-30T01:17:17;10.15;;;5.13;;
9409;SDS011;4744;52.576;13.568;2024-01-30T01:19:43;9.55;;;5.07;;
9409;SDS011;4744;52.576;13.568;2024-01-30T01:22:10;11.13;;;5.75;;
9409;SDS011;4744;52.576;13.568;2024-01-30T01:24:38;9.27;;;5.15;;
9409;SDS011;4744;52.576;13.568;2024-01-30T01:27:06;9.77;;;5.35;;
9409;SDS011;4744;52.576;13.568;2024-01-30T01:29:33;9.35;;;5.07;;
9409;SDS011;4744;52.576;13.568;2024-01-30T01:32:00;9.98;;;4.75;;
9409;SDS011;4744;52.576;13.568;2024-01-30T01:34:26;8.95;;;4.82;;
9409;SDS011;4744;52.576;13.568;2024-01-30T01:36:53;9.15;;;4.93;;
9409;SDS011;4744;52.576;13.568;2024-01-30T01:39:22;9.48;;;5.55;;
9409;SDS011;4744;52.576;13.568;2024-01-30T01:41:50;7.50;;;4.65;;
9409;SDS011;4744;52.576;13.568;2024-01-30T01:44:17;9.65;;;4.88;;
9409;SDS011;4744;52.576;13.568;2024-01-30T01:46:44;10.55;;;5.32;;
9409;SDS011;4744;52.576;13.568;2024-01-30T01:49:12;11.88;;;5.93;;
9409;SDS011;4744;52.576;13.568;2024-01-30T01:51:40;11.73;;;5.10;;
9409;SDS011;4744;52.576;13.568;2024-01-30T01:54:09;9.70;;;5.05;;
9409;SDS011;4744;52.576;13.568;2024-01-30T01:56:37;9.75;;;5.45;;
9409;SDS011;4744;52.576;13.568;2024-01-30T01:59:06;7.18;;;4.43;;
9409;SDS011;4744;52.576;13.568;2024-01-30T02:01:34;9.15;;;4.85;;
9409;SDS011;4744;52.576;13.568;2024-01-30T02:04:02;8.13;;;4.30;;
9409;SDS011;4744;52.576;13.568;2024-01-30T02:06:29;9.57;;;4.38;;
9409;SDS011;4744;52.576;13.568;2024-01-30T02:08:56;9.35;;;4.30;;
9409;SDS011;4744;52.576;13.568;2024-01-30T02:11:23;12.45;;;5.32;;
9409;SDS011;4744;52.576;13.568;2024-01-30T02:13:50;9.23;;;4.38;;
9409;SDS011;4744;52.576;13.568;2024-01-30T02:16:18;10.18;;;4.72;;
9409;SDS011;4744;52.576;13.568;2024-01-30T02:18:45;8.38;;;4.28;;
9409;SDS011;4744;52.576;13.568;2024-01-30T02:21:15;11.90;;;5.05;;
9409;SDS011;4744;52.576;13.568;2024-01-30T02:23:43;11.45;;;5.53;;
9409;SDS011;4744;52.576;13.568;2024-01-30T02:26:10;10.65;;;5.38;;
9409;SDS011;4744;52.576;13.568;2024-01-30T02:28:37;12.05;;;5.57;;
9409;SDS011;4744;52.576;13.568;2024-01-30T02:31:05;9.55;;;5.03;;
9409;SDS011;4744;52.576;13.568;2024-01-30T02:33:32;9.32;;;5.50;;
9409;SDS011;4744;52.576;13.568;2024-01-30T02:35:59;6.70;;;4.68;;
9409;SDS011;4744;52.576;13.568;2024-01-30T02:38:27;7.38;;;4.55;;
9409;SDS011;4744;52.576;13.568;2024-01-30T02:40:55;7.63;;;4.40;;
9409;SDS011;4744;52.576;13.568;2024-01-30T02:43:22;8.95;;;5.15;;
9409;SDS011;4744;52.576;13.568;2024-01-30T02:45:49;8.88;;;4.93;;
9409;SDS011;4744;52.576;13.568;2024-01-30T02:48:16;12.38;;;4.55;;
9409;SDS011;4744;52.576;13.568;2024-01-30T02:50:43;11.73;;;5.13;;
9409;SDS011;4744;52.576;13.568;2024-01-30T02:53:11;9.38;;;5.07;;
9409;SDS011;4744;52.576;13.568;2024-01-30T02:55:39;9.90;;;5.43;;
9409;SDS011;4744;52.576;13.568;2024-01-30T02:58:06;10.32;;;5.65;;
9409;SDS011;4744;52.576;13.568;2024-01-30T03:00:33;9.95;;;4.72;;
9409;SDS011;4744;52.576;13.568;2024-01-30T03:03:00;9.27;;;4.95;;
9409;SDS011;4744;52.576;13.568;2024-01-30T03:05:27;8.30;;;5.03;;
9409;SDS011;4744;52.576;13.568;2024-01-30T03:07:54;11.95;;;5.55;;
9409;SDS011;4744;52.576;13.568;2024-01-30T03:10:21;14.50;;;5.70;;
9409;SDS011;4744;52.576;13.568;2024-01-30T03:12:50;8.15;;;4.80;;
9409;SDS011;4744;52.576;13.568;2024-01-30T03:15:17;9.38;;;5.28;;
9409;SDS011;4744;52.576;13.568;2024-01-30T03:17:43;13.52;;;5.53;;
9409;SDS011;4744;52.576;13.568;2024-01-30T03:20:11;8.60;;;5.18;;
9409;SDS011;4744;52.576;13.568;2024-01-30T03:22:38;11.32;;;5.47;;
9409;SDS011;4744;52.576;13.568;2024-01-30T03:25:05;10.15;;;5.50;;
9409;SDS011;4744;52.576;13.568;2024-01-30T03:27:32;9.30;;;4.90;;
9409;SDS011;4744;52.576;13.568;2024-01-30T03:30:01;10.88;;;6.00;;
9409;SDS011;4744;52.576;13.568;2024-01-30T03:32:28;14.27;;;5.50;;
9409;SDS011;4744;52.576;13.568;2024-01-30T03:34:55;11.10;;;5.60;;
9409;SDS011;4744;52.576;13.568;2024-01-30T03:37:23;10.32;;;5.20;;
9409;SDS011;4744;52.576;13.568;2024-01-30T03:39:50;9.77;;;6.03;;
9409;SDS011;4744;52.576;13.568;2024-01-30T03:42:17;12.43;;;5.15;;
9409;SDS011;4744;52.576;13.568;2024-01-30T03:44:44;10.93;;;5.55;;
9409;SDS011;4744;52.576;13.568;2024-01-30T03:47:12;9.13;;;5.63;;
9409;SDS011;4744;52.576;13.568;2024-01-30T03:49:39;12.15;;;5.70;;
9409;SDS011;4744;52.576;13.568;2024-01-30T03:52:06;8.48;;;5.07;;
9409;SDS011;4744;52.576;13.568;2024-01-30T03:54:33;10.27;;;5.28;;
9409;SDS011;4744;52.576;13.568;2024-01-30T03:57:00;8.50;;;5.15;;
9409;SDS011;4744;52.576;13.568;2024-01-30T03:59:27;11.25;;;5.65;;
9409;SDS011;4744;52.576;13.568;2024-01-30T04:01:54;12.88;;;5.70;;
9409;SDS011;4744;52.576;13.568;2024-01-30T04:04:23;9.25;;;5.70;;
9409;SDS011;4744;52.576;13.568;2024-01-30T04:06:50;9.20;;;5.40;;
9409;SDS011;4744;52.576;13.568;2024-01-30T04:09:17;9.77;;;6.15;;
9409;SDS011;4744;52.576;13.568;2024-01-30T04:11:44;11.02;;;6.15;;
9409;SDS011;4744;52.576;13.568;2024-01-30T04:14:11;11.50;;;6.65;;
9409;SDS011;4744;52.576;13.568;2024-01-30T04:16:38;10.70;;;6.13;;
9409;SDS011;4744;52.576;13.568;2024-01-30T04:19:04;10.18;;;5.30;;
9409;SDS011;4744;52.576;13.568;2024-01-30T04:21:33;12.38;;;5.28;;
9409;SDS011;4744;52.576;13.568;2024-01-30T04:24:00;10.18;;;5.32;;
9409;SDS011;4744;52.576;13.568;2024-01-30T04:26:27;10.55;;;5.43;;
9409;SDS011;4744;52.576;13.568;2024-01-30T04:28:53;8.55;;;5.57;;
9409;SDS011;4744;52.576;13.568;2024-01-30T04:31:20;12.65;;;5.60;;
9409;SDS011;4744;52.576;13.568;2024-01-30T04:33:47;11.25;;;5.25;;
9409;SDS011;4744;52.576;13.568;2024-01-30T04:36:14;11.00;;;5.78;;
9409;SDS011;4744;52.576;13.568;2024-01-30T04:38:43;9.77;;;5.55;;
9409;SDS011;4744;52.576;13.568;2024-01-30T04:41:10;9.90;;;5.50;;
9409;SDS011;4744;52.576;13.568;2024-01-30T04:43:37;14.15;;;6.75;;
9409;SDS011;4744;52.576;13.568;2024-01-30T04:46:03;10.32;;;5.68;;
9409;SDS011;4744;52.576;13.568;2024-01-30T04:48:31;16.42;;;5.97;;
9409;SDS011;4744;52.576;13.568;2024-01-30T04:50:58;11.43;;;5.45;;
9409;SDS011;4744;52.576;13.568;2024-01-30T04:53:29;14.15;;;6.68;;
9409;SDS011;4744;52.576;13.568;2024-01-30T04:55:58;13.70;;;6.72;;
9409;SDS011;4744;52.576;13.568;2024-01-30T04:58:25;8.48;;;5.75;;
9409;SDS011;4744;52.576;13.568;2024-01-30T05:00:52;12.40;;;5.93;;
9409;SDS011;4744;52.576;13.568;2024-01-30T05:03:19;9.45;;;5.45;;
9409;SDS011;4744;52.576;13.568;2024-01-30T05:05:47;12.57;;;5.85;;
9409;SDS011;4744;52.576;13.568;2024-01-30T05:08:14;10.85;;;6.30;;
9409;SDS011;4744;52.576;13.568;2024-01-30T05:10:41;11.20;;;5.85;;
9409;SDS011;4744;52.576;13.568;2024-01-30T05:13:09;13.25;;;6.70;;
9409;SDS011;4744;52.576;13.568;2024-01-30T05:15:38;11.85;;;6.50;;
9409;SDS011;4744;52.576;13.568;2024-01-30T05:18:05;11.32;;;5.63;;
9409;SDS011;4744;52.576;13.568;2024-01-30T05:20:32;11.25;;;6.30;;
9409;SDS011;4744;52.576;13.568;2024-01-30T05:22:59;12.88;;;6.57;;
9409;SDS011;4744;52.576;13.568;2024-01-30T05:25:26;9.88;;;5.40;;
9409;SDS011;4744;52.576;13.568;2024-01-30T05:27:53;10.15;;;6.28;;
9409;SDS011;4744;52.576;13.568;2024-01-30T05:30:23;11.88;;;6.45;;
9409;SDS011;4744;52.576;13.568;2024-01-30T05:32:50;12.02;;;5.97;;
9409;SDS011;4744;52.576;13.568;2024-01-30T05:35:17;15.30;;;7.22;;
9409;SDS011;4744;52.576;13.568;2024-01-30T05:37:46;12.35;;;7.13;;
9409;SDS011;4744;52.576;13.568;2024-01-30T05:40:14;13.38;;;6.25;;
9409;SDS011;4744;52.576;13.568;2024-01-30T05:42:41;9.77;;;5.72;;
9409;SDS011;4744;52.576;13.568;2024-01-30T05:45:08;9.88;;;6.20;;
9409;SDS011;4744;52.576;13.568;2024-01-30T05:47:37;11.52;;;6.78;;
9409;SDS011;4744;52.576;13.568;2024-01-30T05:50:04;10.57;;;6.40;;
9409;SDS011;4744;52.576;13.568;2024-01-30T05:52:32;10.82;;;6.45;;
9409;SDS011;4744;52.576;13.568;2024-01-30T05:54:59;12.20;;;7.07;;
9409;SDS011;4744;52.576;13.568;2024-01-30T05:57:26;14.20;;;6.93;;
9409;SDS011;4744;52.576;13.568;2024-01-30T05:59:53;12.30;;;6.75;;
9409;SDS011;4744;52.576;13.568;2024-01-30T06:02:20;13.32;;;6.85;;
9409;SDS011;4744;52.576;13.568;2024-01-30T06:04:48;10.77;;;6.85;;
9409;SDS011;4744;52.576;13.568;2024-01-30T06:07:15;15.05;;;6.63;;
9409;SDS011;4744;52.576;13.568;2024-01-30T06:09:43;13.20;;;6.90;;
9409;SDS011;4744;52.576;13.568;2024-01-30T06:12:10;13.63;;;6.97;;
9409;SDS011;4744;52.576;13.568;2024-01-30T06:14:37;11.85;;;5.80;;
9409;SDS011;4744;52.576;13.568;2024-01-30T06:17:04;11.35;;;6.80;;
9409;SDS011;4744;52.576;13.568;2024-01-30T06:19:32;14.32;;;6.57;;
9409;SDS011;4744;52.576;13.568;2024-01-30T06:22:00;13.13;;;6.15;;
9409;SDS011;4744;52.576;13.568;2024-01-30T06:24:29;12.73;;;6.43;;
9409;SDS011;4744;52.576;13.568;2024-01-30T06:26:56;15.48;;;6.80;;
9409;SDS011;4744;52.576;13.568;2024-01-30T06:29:23;16.13;;;6.95;;
9409;SDS011;4744;52.576;13.568;2024-01-30T06:31:51;11.73;;;6.28;;
9409;SDS011;4744;52.576;13.568;2024-01-30T06:34:18;11.90;;;6.20;;
9409;SDS011;4744;52.576;13.568;2024-01-30T06:36:45;13.55;;;6.45;;
9409;SDS011;4744;52.576;13.568;2024-01-30T06:39:14;18.73;;;6.88;;
9409;SDS011;4744;52.576;13.568;2024-01-30T06:41:41;11.35;;;6.13;;
9409;SDS011;4744;52.576;13.568;2024-01-30T06:44:08;11.13;;;6.68;;
9409;SDS011;4744;52.576;13.568;2024-01-30T06:46:35;13.18;;;6.82;;
9409;SDS011;4744;52.576;13.568;2024-01-30T06:49:03;9.45;;;6.05;;
9409;SDS011;4744;52.576;13.568;2024-01-30T06:51:30;12.05;;;7.20;;
9409;SDS011;4744;52.576;13.568;2024-01-30T06:53:57;16.60;;;6.97;;
9409;SDS011;4744;52.576;13.568;2024-01-30T06:56:25;10.95;;;7.20;;
9409;SDS011;4744;52.576;13.568;2024-01-30T06:58:52;20.48;;;7.40;;
9409;SDS011;4744;52.576;13.568;2024-01-30T07:01:19;14.40;;;7.00;;
9409;SDS011;4744;52.576;13.568;2024-01-30T07:03:46;15.18;;;7.47;;
9409;SDS011;4744;52.576;13.568;2024-01-30T07:06:13;11.73;;;6.65;;
9409;SDS011;4744;52.576;13.568;2024-01-30T07:08:40;17.30;;;6.43;;
9409;SDS011;4744;52.576;13.568;2024-01-30T07:11:07;16.00;;;7.13;;
9409;SDS011;4744;52.576;13.568;2024-01-30T07:13:36;13.25;;;7.28;;
9409;SDS011;4744;52.576;13.568;2024-01-30T07:16:03;11.77;;;6.60;;
9409;SDS011;4744;52.576;13.568;2024-01-30T07:18:30;13.93;;;7.72;;
9409;SDS011;4744;52.576;13.568;2024-01-30T07:20:57;18.67;;;8.07;;
9409;SDS011;4744;52.576;13.568;2024-01-30T07:23:24;13.20;;;7.10;;
9409;SDS011;4744;52.576;13.568;2024-01-30T07:25:51;18.25;;;7.65;;
9409;SDS011;4744;52.576;13.568;2024-01-30T07:28:18;13.60;;;7.03;;
9409;SDS011;4744;52.576;13.568;2024-01-30T07:30:47;14.93;;;8.07;;
9409;SDS011;4744;52.576;13.568;2024-01-30T07:33:14;11.77;;;7.15;;
9409;SDS011;4744;52.576;13.568;2024-01-30T07:35:41;15.50;;;8.10;;
9409;SDS011;4744;52.576;13.568;2024-01-30T07:38:08;11.45;;;7.18;;
9409;SDS011;4744;52.576;13.568;2024-01-30T07:40:35;13.15;;;6.80;;
9409;SDS011;4744;52.576;13.568;2024-01-30T07:43:02;12.88;;;7.72;;
9409;SDS011;4744;52.576;13.568;2024-01-30T07:45:29;13.50;;;7.57;;
9409;SDS011;4744;52.576;13.568;2024-01-30T07:47:59;13.27;;;6.70;;
9409;SDS011;4744;52.576;13.568;2024-01-30T07:50:26;12.93;;;6.65;;
9409;SDS011;4744;52.576;13.568;2024-01-30T07:52:53;11.68;;;7.05;;
9409;SDS011;4744;52.576;13.568;2024-01-30T07:55:21;11.43;;;6.90;;
9409;SDS011;4744;52.576;13.568;2024-01-30T07:57:49;11.93;;;6.95;;
9409;SDS011;4744;52.576;13.568;2024-01-30T08:00:18;11.18;;;7.03;;
9409;SDS011;4744;52.576;13.568;2024-01-30T08:02:45;13.32;;;7.45;;
9409;SDS011;4744;52.576;13.568;2024-01-30T08:05:14;14.20;;;7.13;;
9409;SDS011;4744;52.576;13.568;2024-01-30T08:07:41;11.70;;;7.05;;
9409;SDS011;4744;52.576;13.568;2024-01-30T08:10:08;15.77;;;7.07;;
9409;SDS011;4744;52.576;13.568;2024-01-30T08:15:05;21.65;;;7.80;;
9409;SDS011;4744;52.576;13.568;2024-01-30T08:17:32;13.25;;;7.65;;
9409;SDS011;4744;52.576;13.568;2024-01-30T08:19:59;12.63;;;7.28;;
9409;SDS011;4744;52.576;13.568;2024-01-30T08:22:30;12.93;;;6.55;;
9409;SDS011;4744;52.576;13.568;2024-01-30T08:24:57;13.63;;;7.43;;
9409;SDS011;4744;52.576;13.568;2024-01-30T08:27:24;14.38;;;7.25;;
9409;SDS011;4744;52.576;13.568;2024-01-30T08:29:51;13.25;;;6.97;;
9409;SDS011;4744;52.576;13.568;2024-01-30T08:32:18;16.85;;;6.93;;
9409;SDS011;4744;52.576;13.568;2024-01-30T08:34:45;12.85;;;6.82;;
9409;SDS011;4744;52.576;13.568;2024-01-30T08:37:12;12.52;;;7.15;;
9409;SDS011;4744;52.576;13.568;2024-01-30T08:39:42;13.18;;;7.30;;
9409;SDS011;4744;52.576;13.568;2024-01-30T08:42:09;16.02;;;6.95;;
9409;SDS011;4744;52.576;13.568;2024-01-30T08:44:37;13.35;;;7.10;;
9409;SDS011;4744;52.576;13.568;2024-01-30T08:47:05;14.98;;;7.10;;
9409;SDS011;4744;52.576;13.568;2024-01-30T08:49:34;15.02;;;7.70;;
9409;SDS011;4744;52.576;13.568;2024-01-30T08:52:01;13.40;;;7.25;;
9409;SDS011;4744;52.576;13.568;2024-01-30T08:54:29;15.13;;;6.95;;
9409;SDS011;4744;52.576;13.568;2024-01-30T08:57:21;10.90;;;6.38;;
9409;SDS011;4744;52.576;13.568;2024-01-30T08:59:48;13.05;;;6.88;;
9409;SDS011;4744;52.576;13.568;2024-01-30T09:02:15;14.80;;;6.90;;
9409;SDS011;4744;52.576;13.568;2024-01-30T09:04:43;12.77;;;7.18;;
9409;SDS011;4744;52.576;13.568;2024-01-30T09:10:16;10.65;;;6.25;;
9409;SDS011;4744;52.576;13.568;2024-01-30T09:12:43;11.50;;;6.15;;
9409;SDS011;4744;52.576;13.568;2024-01-30T09:15:10;10.27;;;5.95;;
9409;SDS011;4744;52.576;13.568;2024-01-30T09:17:37;12.85;;;7.03;;
9409;SDS011;4744;52.576;13.568;2024-01-30T09:20:05;14.77;;;6.63;;
9409;SDS011;4744;52.576;13.568;2024-01-30T09:22:33;11.77;;;6.05;;
9409;SDS011;4744;52.576;13.568;2024-01-30T09:25:00;10.10;;;5.50;;
9409;SDS011;4744;52.576;13.568;2024-01-30T09:27:28;7.70;;;5.78;;
9409;SDS011;4744;52.576;13.568;2024-01-30T09:29:56;12.27;;;5.57;;
9409;SDS011;4744;52.576;13.568;2024-01-30T09:32:23;11.30;;;6.00;;
9409;SDS011;4744;52.576;13.568;2024-01-30T09:34:50;15.25;;;6.10;;
9409;SDS011;4744;52.576;13.568;2024-01-30T09:37:17;13.23;;;6.70;;
9409;SDS011;4744;52.576;13.568;2024-01-30T09:39:43;10.77;;;6.13;;
9409;SDS011;4744;52.576;13.568;2024-01-30T09:42:11;11.05;;;6.57;;
9409;SDS011;4744;52.576;13.568;2024-01-30T09:44:48;12.52;;;6.90;;
9409;SDS011;4744;52.576;13.568;2024-01-30T09:47:18;13.02;;;8.15;;
9409;SDS011;4744;52.576;13.568;2024-01-30T09:49:44;10.27;;;6.82;;
9409;SDS011;4744;52.576;13.568;2024-01-30T09:52:12;11.43;;;5.82;;
9409;SDS011;4744;52.576;13.568;2024-01-30T09:54:40;9.60;;;5.90;;
9409;SDS011;4744;52.576;13.568;2024-01-30T09:57:08;12.10;;;6.38;;
9409;SDS011;4744;52.576;13.568;2024-01-30T09:59:35;13.35;;;6.68;;
9409;SDS011;4744;52.576;13.568;2024-01-30T10:02:03;11.75;;;6.00;;
9409;SDS011;4744;52.576;13.568;2024-01-30T10:04:30;14.95;;;6.30;;
9409;SDS011;4744;52.576;13.568;2024-01-30T10:06:57;11.23;;;6.22;;
9409;SDS011;4744;52.576;13.568;2024-01-30T10:09:27;13.10;;;7.45;;
9409;SDS011;4744;52.576;13.568;2024-01-30T10:11:57;9.85;;;6.63;;
9409;SDS011;4744;52.576;13.568;2024-01-30T10:14:24;12.63;;;6.03;;
9409;SDS011;4744;52.576;13.568;2024-01-30T10:16:51;11.85;;;6.32;;
9409;SDS011;4744;52.576;13.568;2024-01-30T10:19:20;10.90;;;6.38;;
9409;SDS011;4744;52.576;13.568;2024-01-30T10:21:47;13.88;;;7.45;;
9409;SDS011;4744;52.576;13.568;2024-01-30T10:24:14;14.25;;;6.13;;
9409;SDS011;4744;52.576;13.568;2024-01-30T10:26:43;10.80;;;6.10;;
9409;SDS011;4744;52.576;13.568;2024-01-30T10:29:10;13.23;;;7.10;;
9409;SDS011;4744;52.576;13.568;2024-01-30T10:31:37;12.48;;;6.50;;
9409;SDS011;4744;52.576;13.568;2024-01-30T10:34:04;10.20;;;6.25;;
9409;SDS011;4744;52.576;13.568;2024-01-30T10:36:33;11.30;;;5.95;;
9409;SDS011;4744;52.576;13.568;2024-01-30T10:39:05;11.38;;;5.75;;
9409;SDS011;4744;52.576;13.568;2024-01-30T10:41:35;11.25;;;5.90;;
9409;SDS011;4744;52.576;13.568;2024-01-30T10:44:08;9.57;;;5.38;;
9409;SDS011;4744;52.576;13.568;2024-01-30T10:46:37;12.43;;;6.00;;
9409;SDS011;4744;52.576;13.568;2024-01-30T10:49:05;10.15;;;5.43;;
9409;SDS011;4744;52.576;13.568;2024-01-30T10:51:33;13.32;;;6.15;;
9409;SDS011;4744;52.576;13.568;2024-01-30T10:54:03;12.55;;;7.25;;
9409;SDS011;4744;52.576;13.568;2024-01-30T10:56:31;14.10;;;6.75;;
9409;SDS011;4744;52.576;13.568;2024-01-30T10:58:59;10.23;;;6.13;;
9409;SDS011;4744;52.576;13.568;2024-01-30T11:01:28;11.45;;;5.38;;
9409;SDS011;4744;52.576;13.568;2024-01-30T11:03:56;11.95;;;6.15;;
9409;SDS011;4744;52.576;13.568;2024-01-30T11:06:23;12.25;;;5.55;;
9409;SDS011;4744;52.576;13.568;2024-01-30T11:09:02;9.27;;;5.28;;
9409;SDS011;4744;52.576;13.568;2024-01-30T11:11:47;8.13;;;4.75;;
9409;SDS011;4744;52.576;13.568;2024-01-30T11:14:15;9.27;;;5.10;;
9409;SDS011;4744;52.576;13.568;2024-01-30T11:16:42;13.25;;;5.28;;
9409;SDS011;4744;52.576;13.568;2024-01-30T11:19:10;10.50;;;4.75;;
9409;SDS011;4744;52.576;13.568;2024-01-30T11:21:41;9.00;;;5.25;;
9409;SDS011;4744;52.576;13.568;2024-01-30T11:24:09;12.18;;;5.55;;
9409;SDS011;4744;52.576;13.568;2024-01-30T11:26:37;7.07;;;4.97;;
9409;SDS011;4744;52.576;13.568;2024-01-30T11:29:07;8.65;;;4.22;;
9409;SDS011;4744;52.576;13.568;2024-01-30T11:31:34;11.38;;;4.95;;
9409;SDS011;4744;52.576;13.568;2024-01-30T11:34:01;10.48;;;4.88;;
9409;SDS011;4744;52.576;13.568;2024-01-30T11:36:28;6.60;;;4.72;;
9409;SDS011;4744;52.576;13.568;2024-01-30T11:38:56;6.10;;;4.68;;
9409;SDS011;4744;52.576;13.568;2024-01-30T11:41:24;10.05;;;5.40;;
9409;SDS011;4744;52.576;13.568;2024-01-30T11:43:51;6.78;;;4.75;;
9409;SDS011;4744;52.576;13.568;2024-01-30T11:46:19;9.98;;;4.35;;
9409;SDS011;4744;52.576;13.568;2024-01-30T11:48:46;8.43;;;4.35;;
9409;SDS011;4744;52.576;13.568;2024-01-30T11:51:13;9.75;;;3.83;;
9409;SDS011;4744;52.576;13.568;2024-01-30T11:53:41;10.20;;;5.03;;
9409;SDS011;4744;52.576;13.568;2024-01-30T11:56:08;6.43;;;4.20;;
9409;SDS011;4744;52.576;13.568;2024-01-30T11:58:36;8.02;;;4.40;;
9409;SDS011;4744;52.576;13.568;2024-01-30T12:01:03;7.60;;;4.13;;
9409;SDS011;4744;52.576;13.568;2024-01-30T12:03:30;8.15;;;3.88;;
9409;SDS011;4744;52.576;13.568;2024-01-30T12:05:57;8.05;;;3.90;;
9409;SDS011;4744;52.576;13.568;2024-01-30T12:08:24;10.85;;;4.80;;
9409;SDS011;4744;52.576;13.568;2024-01-30T12:10:56;9.60;;;4.68;;
9409;SDS011;4744;52.576;13.568;2024-01-30T12:13:23;18.92;;;5.00;;
9409;SDS011;4744;52.576;13.568;2024-01-30T12:15:53;8.13;;;4.18;;
9409;SDS011;4744;52.576;13.568;2024-01-30T12:18:20;8.30;;;4.45;;
9409;SDS011;4744;52.576;13.568;2024-01-30T12:20:56;7.90;;;4.50;;
9409;SDS011;4744;52.576;13.568;2024-01-30T12:23:24;5.75;;;4.50;;
9409;SDS011;4744;52.576;13.568;2024-01-30T12:25:51;11.98;;;4.70;;
9409;SDS011;4744;52.576;13.568;2024-01-30T12:28:19;11.77;;;4.53;;
9409;SDS011;4744;52.576;13.568;2024-01-30T12:30:46;7.30;;;4.38;;
9409;SDS011;4744;52.576;13.568;2024-01-30T12:33:17;9.23;;;4.82;;
9409;SDS011;4744;52.576;13.568;2024-01-30T12:35:47;11.13;;;5.15;;
9409;SDS011;4744;52.576;13.568;2024-01-30T12:38:14;9.52;;;5.57;;
9409;SDS011;4744;52.576;13.568;2024-01-30T12:40:41;9.45;;;4.93;;
9409;SDS011;4744;52.576;13.568;2024-01-30T12:43:10;7.32;;;4.50;;
9409;SDS011;4744;52.576;13.568;2024-01-30T12:45:37;7.78;;;5.25;;
9409;SDS011;4744;52.576;13.568;2024-01-30T12:48:04;9.35;;;5.20;;
9409;SDS011;4744;52.576;13.568;2024-01-30T12:50:33;10.80;;;5.03;;
9409;SDS011;4744;52.576;13.568;2024-01-30T12:53:00;10.57;;;5.40;;
9409;SDS011;4744;52.576;13.568;2024-01-30T12:55:27;12.05;;;5.03;;
9409;SDS011;4744;52.576;13.568;2024-01-30T12:57:55;11.30;;;5.22;;
9409;SDS011;4744;52.576;13.568;2024-01-30T13:00:22;9.55;;;4.97;;
9409;SDS011;4744;52.576;13.568;2024-01-30T13:02:49;8.70;;;5.03;;
9409;SDS011;4744;52.576;13.568;2024-01-30T13:05:16;8.30;;;4.80;;
9409;SDS011;4744;52.576;13.568;2024-01-30T13:07:45;8.50;;;5.40;;
9409;SDS011;4744;52.576;13.568;2024-01-30T13:10:12;10.40;;;5.68;;
9409;SDS011;4744;52.576;13.568;2024-01-30T13:12:39;10.13;;;5.72;;
9409;SDS011;4744;52.576;13.568;2024-01-30T13:15:06;11.15;;;5.30;;
9409;SDS011;4744;52.576;13.568;2024-01-30T13:17:33;8.30;;;4.50;;
9409;SDS011;4744;52.576;13.568;2024-01-30T13:20:01;8.88;;;4.32;;
9409;SDS011;4744;52.576;13.568;2024-01-30T13:22:29;9.68;;;4.70;;
9409;SDS011;4744;52.576;13.568;2024-01-30T13:24:57;8.57;;;4.55;;
9409;SDS011;4744;52.576;13.568;2024-01-30T13:27:24;9.75;;;5.13;;
9409;SDS011;4744;52.576;13.568;2024-01-30T13:29:52;11.05;;;5.32;;
9409;SDS011;4744;52.576;13.568;2024-01-30T13:32:19;9.43;;;4.60;;
9409;SDS011;4744;52.576;13.568;2024-01-30T13:34:46;8.02;;;5.18;;
9409;SDS011;4744;52.576;13.568;2024-01-30T13:37:13;7.53;;;5.00;;
9409;SDS011;4744;52.576;13.568;2024-01-30T13:39:40;12.13;;;5.88;;
9409;SDS011;4744;52.576;13.568;2024-01-30T13:42:09;8.43;;;6.00;;
9409;SDS011;4744;52.576;13.568;2024-01-30T13:44:36;12.23;;;4.78;;
9409;SDS011;4744;52.576;13.568;2024-01-30T13:47:03;13.05;;;5.72;;
9409;SDS011;4744;52.576;13.568;2024-01-30T13:49:31;8.73;;;5.20;;
9409;SDS011;4744;52.576;13.568;2024-01-30T13:51:58;8.45;;;4.57;;
9409;SDS011;4744;52.576;13.568;2024-01-30T13:54:25;8.25;;;5.22;;
9409;SDS011;4744;52.576;13.568;2024-01-30T13:56:52;10.52;;;5.20;;
9409;SDS011;4744;52.576;13.568;2024-01-30T13:59:20;16.00;;;5.93;;
9409;SDS011;4744;52.576;13.568;2024-01-30T14:01:49;10.93;;;5.28;;
9409;SDS011;4744;52.576;13.568;2024-01-30T14:04:17;9.93;;;4.90;;
9409;SDS011;4744;52.576;13.568;2024-01-30T14:06:44;14.35;;;5.25;;
9409;SDS011;4744;52.576;13.568;2024-01-30T14:09:11;7.45;;;4.55;;
9409;SDS011;4744;52.576;13.568;2024-01-30T14:11:40;12.23;;;5.05;;
9409;SDS011;4744;52.576;13.568;2024-01-30T14:14:08;10.73;;;5.30;;
9409;SDS011;4744;52.576;13.568;2024-01-30T14:16:36;8.57;;;5.10;;
9409;SDS011;4744;52.576;13.568;2024-01-30T14:19:04;12.32;;;5.60;;
9409;SDS011;4744;52.576;13.568;2024-01-30T14:21:31;8.93;;;5.57;;
9409;SDS011;4744;52.576;13.568;2024-01-30T14:23:58;7.93;;;5.22;;
9409;SDS011;4744;52.576;13.568;2024-01-30T14:26:25;10.43;;;4.72;;
9409;SDS011;4744;52.576;13.568;2024-01-30T14:28:53;9.85;;;4.85;;
9409;SDS011;4744;52.576;13.568;2024-01-30T14:31:21;9.55;;;4.72;;
9409;SDS011;4744;52.576;13.568;2024-01-30T14:33:50;10.35;;;5.93;;
9409;SDS011;4744;52.576;13.568;2024-01-30T14:36:17;10.73;;;4.75;;
9409;SDS011;4744;52.576;13.568;2024-01-30T14:38:45;10.05;;;5.50;;
9409;SDS011;4744;52.576;13.568;2024-01-30T14:41:12;10.32;;;5.40;;
9409;SDS011;4744;52.576;13.568;2024-01-30T14:43:39;10.55;;;5.40;;
9409;SDS011;4744;52.576;13.568;2024-01-30T14:46:06;9.73;;;5.13;;
9409;SDS011;4744;52.576;13.568;2024-01-30T14:48:33;10.77;;;5.50;;
9409;SDS011;4744;52.576;13.568;2024-01-30T14:51:02;8.05;;;4.75;;
9409;SDS011;4744;52.576;13.568;2024-01-30T14:53:29;10.35;;;6.20;;
9409;SDS011;4744;52.576;13.568;2024-01-30T14:55:56;11.80;;;5.93;;
9409;SDS011;4744;52.576;13.568;2024-01-30T14:58:23;10.52;;;5.68;;
9409;SDS011;4744;52.576;13.568;2024-01-30T15:00:50;11.05;;;6.07;;